createdAt,value
2023-01-07T00:00:09.586Z,9.49
2023-01-07T00:01:09.460Z,9.53
2023-01-07T00:02:09.442Z,9.48
2023-01-07T00:03:09.425Z,9.49
2023-01-07T00:04:09.516Z,9.49
2023-01-07T00:05:09.401Z,9.49
2023-01-07T00:06:09.563Z,9.44
2023-01-07T00:07:11.786Z,9.44
2023-01-07T00:08:09.362Z,9.48
2023-01-07T00:09:09.342Z,9.44
2023-01-07T00:10:09.339Z,9.44
2023-01-07T00:11:09.314Z,9.50
2023-01-07T00:12:09.302Z,9.49
2023-01-07T00:13:09.287Z,9.45
2023-01-07T00:14:09.276Z,9.48
2023-01-07T00:15:09.273Z,9.53
2023-01-07T00:16:09.325Z,9.38
2023-01-07T00:17:09.229Z,9.50
2023-01-07T00:18:09.218Z,9.45
2023-01-07T00:19:09.203Z,9.34
2023-01-07T00:20:09.192Z,9.40
2023-01-07T00:21:09.176Z,9.38
2023-01-07T00:22:09.284Z,9.42
2023-01-07T00:23:09.150Z,9.48
2023-01-07T00:24:09.136Z,9.53
2023-01-07T00:25:09.119Z,9.50
2023-01-07T00:26:09.110Z,9.49
2023-01-07T00:27:09.107Z,9.35
2023-01-07T00:28:09.081Z,9.38
2023-01-07T00:29:09.079Z,9.38
2023-01-07T00:30:09.056Z,9.44
2023-01-07T00:31:09.092Z,9.37
2023-01-07T00:32:09.029Z,9.40
2023-01-07T00:33:09.012Z,9.24
2023-01-07T00:34:09.034Z,9.40
2023-01-07T00:35:08.981Z,9.38
2023-01-07T00:36:08.969Z,9.37
2023-01-07T00:37:08.952Z,9.31
2023-01-07T00:38:09.065Z,9.35
2023-01-07T00:39:08.940Z,9.27
2023-01-07T00:40:08.919Z,9.24
2023-01-07T00:41:08.903Z,9.32
2023-01-07T00:42:08.897Z,9.32
2023-01-07T00:43:08.882Z,9.26
2023-01-07T00:44:08.875Z,9.37
2023-01-07T00:45:08.837Z,9.32
2023-01-07T00:46:08.959Z,9.31
2023-01-07T00:47:08.814Z,9.26
2023-01-07T00:48:08.806Z,9.20
2023-01-07T00:49:08.782Z,9.27
2023-01-07T00:50:08.780Z,9.31
2023-01-07T00:51:08.755Z,9.22
2023-01-07T00:52:08.742Z,9.26
2023-01-07T00:53:08.726Z,9.22
2023-01-07T00:54:08.840Z,9.30
2023-01-07T00:55:08.699Z,9.32
2023-01-07T00:56:08.689Z,9.32
2023-01-07T00:57:08.669Z,9.27
2023-01-07T00:58:08.666Z,9.37
2023-01-07T00:59:08.643Z,9.30
2023-01-07T01:00:08.633Z,9.26
2023-01-07T01:01:08.698Z,9.27
2023-01-07T01:02:08.760Z,9.32
2023-01-07T01:03:08.586Z,9.23
2023-01-07T01:04:08.582Z,9.30
2023-01-07T01:05:08.558Z,9.24
2023-01-07T01:06:08.595Z,9.30
2023-01-07T01:07:08.531Z,9.27
2023-01-07T01:08:08.520Z,9.20
2023-01-07T01:09:08.501Z,9.30
2023-01-07T01:10:08.606Z,9.31
2023-01-07T01:11:08.477Z,9.32
2023-01-07T01:12:08.461Z,9.22
2023-01-07T01:13:08.453Z,9.30
2023-01-07T01:14:08.433Z,9.20
2023-01-07T01:15:08.428Z,9.13
2023-01-07T01:16:08.485Z,9.30
2023-01-07T01:17:08.390Z,9.20
2023-01-07T01:18:08.385Z,9.15
2023-01-07T01:19:08.367Z,9.13
2023-01-07T01:20:08.350Z,9.16
2023-01-07T01:21:08.333Z,9.16
2023-01-07T01:22:08.320Z,9.24
2023-01-07T01:23:08.312Z,9.12
2023-01-07T01:24:08.314Z,9.12
2023-01-07T01:25:08.273Z,9.22
2023-01-07T01:26:08.377Z,9.06
2023-01-07T01:27:08.246Z,9.10
2023-01-07T01:28:08.234Z,9.13
2023-01-07T01:29:08.232Z,9.03
2023-01-07T01:30:08.222Z,9.01
2023-01-07T01:31:08.444Z,9.10
2023-01-07T01:32:08.183Z,9.03
2023-01-07T01:33:08.174Z,8.94
2023-01-07T01:34:08.186Z,8.96
2023-01-07T01:35:08.135Z,8.96
2023-01-07T01:36:08.322Z,9.04
2023-01-07T01:37:08.111Z,8.91
2023-01-07T01:38:08.103Z,8.98
2023-01-07T01:39:08.080Z,9.00
2023-01-07T01:40:08.094Z,8.91
2023-01-07T01:41:08.050Z,8.89
2023-01-07T01:42:08.156Z,8.96
2023-01-07T01:43:08.020Z,8.89
2023-01-07T01:44:08.009Z,8.85
2023-01-07T01:45:07.992Z,8.88
2023-01-07T01:46:07.978Z,8.85
2023-01-07T01:47:07.963Z,8.83
2023-01-07T01:48:07.952Z,8.86
2023-01-07T01:49:07.942Z,8.83
2023-01-07T01:50:07.927Z,8.89
2023-01-07T01:51:07.905Z,8.88
2023-01-07T01:52:07.895Z,8.80
2023-01-07T01:53:07.876Z,8.73
2023-01-07T01:54:07.870Z,8.91
2023-01-07T01:55:07.847Z,8.88
2023-01-07T01:56:07.854Z,8.93
2023-01-07T01:57:07.818Z,8.97
2023-01-07T01:58:07.927Z,8.91
2023-01-07T01:59:07.790Z,8.86
2023-01-07T02:00:07.805Z,8.97
2023-01-07T02:01:07.881Z,8.88
2023-01-07T02:02:07.851Z,8.93
2023-01-07T02:03:07.732Z,8.86
2023-01-07T02:04:07.725Z,8.88
2023-01-07T02:05:07.708Z,8.82
2023-01-07T02:06:07.698Z,8.82
2023-01-07T02:07:07.682Z,8.88
2023-01-07T02:08:07.672Z,8.79
2023-01-07T02:09:07.645Z,8.82
2023-01-07T02:10:07.642Z,8.82
2023-01-07T02:11:07.618Z,8.73
2023-01-07T02:12:07.617Z,8.86
2023-01-07T02:13:07.597Z,8.83
2023-01-07T02:14:07.700Z,8.82
2023-01-07T02:15:07.564Z,8.91
2023-01-07T02:16:07.619Z,8.76
2023-01-07T02:17:07.540Z,8.83
2023-01-07T02:18:07.523Z,8.78
2023-01-07T02:19:07.503Z,8.80
2023-01-07T02:20:07.491Z,8.79
2023-01-07T02:21:07.480Z,8.76
2023-01-07T02:22:07.462Z,8.82
2023-01-07T02:23:07.446Z,8.76
2023-01-07T02:24:07.435Z,8.80
2023-01-07T02:25:07.433Z,8.89
2023-01-07T02:26:07.406Z,8.79
2023-01-07T02:27:07.391Z,8.80
2023-01-07T02:28:07.390Z,8.78
2023-01-07T02:29:07.358Z,8.86
2023-01-07T02:30:07.467Z,8.79
2023-01-07T02:31:07.339Z,8.83
2023-01-07T02:32:07.326Z,8.71
2023-01-07T02:33:07.316Z,8.78
2023-01-07T02:34:07.304Z,8.79
2023-01-07T02:35:07.285Z,8.79
2023-01-07T02:36:07.268Z,8.82
2023-01-07T02:37:07.253Z,8.86
2023-01-07T02:38:07.233Z,8.80
2023-01-07T02:39:07.244Z,8.88
2023-01-07T02:40:07.205Z,8.83
2023-01-07T02:41:07.189Z,8.73
2023-01-07T02:42:07.188Z,8.78
2023-01-07T02:43:07.169Z,8.85
2023-01-07T02:44:07.147Z,8.82
2023-01-07T02:45:07.132Z,8.79
2023-01-07T02:46:07.282Z,8.86
2023-01-07T02:47:07.110Z,8.80
2023-01-07T02:48:07.093Z,8.83
2023-01-07T02:49:07.072Z,8.91
2023-01-07T02:50:07.068Z,8.79
2023-01-07T02:51:07.048Z,8.83
2023-01-07T02:52:07.035Z,8.83
2023-01-07T02:53:07.018Z,8.94
2023-01-07T02:54:07.005Z,8.83
2023-01-07T02:55:06.991Z,8.83
2023-01-07T02:56:06.982Z,8.83
2023-01-07T02:57:06.987Z,8.91
2023-01-07T02:58:06.948Z,9.03
2023-01-07T02:59:06.933Z,8.98
2023-01-07T03:00:06.919Z,8.98
2023-01-07T03:01:07.176Z,9.00
2023-01-07T03:02:07.100Z,8.96
2023-01-07T03:03:06.880Z,9.00
2023-01-07T03:04:06.965Z,8.97
2023-01-07T03:05:06.849Z,8.93
2023-01-07T03:06:06.832Z,8.93
2023-01-07T03:07:06.820Z,8.91
2023-01-07T03:08:06.805Z,8.85
2023-01-07T03:09:06.784Z,8.83
2023-01-07T03:10:06.776Z,8.91
2023-01-07T03:11:06.758Z,8.93
2023-01-07T03:12:06.748Z,8.91
2023-01-07T03:13:06.733Z,8.94
2023-01-07T03:14:06.733Z,8.88
2023-01-07T03:15:06.701Z,8.88
2023-01-07T03:16:06.799Z,8.86
2023-01-07T03:17:06.672Z,8.83
2023-01-07T03:18:06.783Z,8.88
2023-01-07T03:19:06.644Z,8.89
2023-01-07T03:20:06.639Z,8.89
2023-01-07T03:21:06.624Z,8.73
2023-01-07T03:22:06.626Z,8.83
2023-01-07T03:23:06.591Z,8.89
2023-01-07T03:24:06.587Z,8.86
2023-01-07T03:25:06.565Z,8.85
2023-01-07T03:26:06.549Z,8.88
2023-01-07T03:27:06.536Z,8.83
2023-01-07T03:28:06.523Z,8.86
2023-01-07T03:29:06.507Z,8.86
2023-01-07T03:30:06.491Z,8.88
2023-01-07T03:31:06.476Z,8.88
2023-01-07T03:32:06.497Z,8.86
2023-01-07T03:33:06.451Z,8.85
2023-01-07T03:34:06.559Z,8.83
2023-01-07T03:35:06.419Z,8.71
2023-01-07T03:36:06.416Z,8.91
2023-01-07T03:37:06.391Z,8.89
2023-01-07T03:38:06.376Z,8.78
2023-01-07T03:39:06.364Z,8.86
2023-01-07T03:40:06.350Z,8.83
2023-01-07T03:41:06.338Z,8.83
2023-01-07T03:42:06.347Z,8.83
2023-01-07T03:43:06.301Z,8.88
2023-01-07T03:44:06.289Z,8.83
2023-01-07T03:45:06.273Z,8.94
2023-01-07T03:46:06.371Z,8.94
2023-01-07T03:47:06.245Z,9.00
2023-01-07T03:48:06.238Z,8.97
2023-01-07T03:49:06.213Z,8.96
2023-01-07T03:50:06.314Z,8.93
2023-01-07T03:51:06.187Z,8.94
2023-01-07T03:52:06.177Z,8.98
2023-01-07T03:53:06.206Z,8.96
2023-01-07T03:54:06.155Z,8.96
2023-01-07T03:55:06.129Z,9.00
2023-01-07T03:56:06.118Z,8.91
2023-01-07T03:57:06.101Z,8.98
2023-01-07T03:58:06.094Z,8.91
2023-01-07T03:59:06.070Z,9.00
2023-01-07T04:00:06.073Z,8.98
2023-01-07T04:01:06.149Z,8.94
2023-01-07T04:02:06.212Z,8.94
2023-01-07T04:03:06.017Z,9.03
2023-01-07T04:04:06.078Z,9.01
2023-01-07T04:05:05.992Z,9.03
2023-01-07T04:06:06.087Z,9.08
2023-01-07T04:07:05.960Z,8.97
2023-01-07T04:08:05.954Z,9.04
2023-01-07T04:09:05.940Z,9.01
2023-01-07T04:10:05.916Z,9.00
2023-01-07T04:11:05.949Z,8.98
2023-01-07T04:12:05.892Z,8.96
2023-01-07T04:13:05.887Z,8.98
2023-01-07T04:14:05.864Z,8.98
2023-01-07T04:15:05.849Z,8.98
2023-01-07T04:16:05.828Z,8.97
2023-01-07T04:17:05.833Z,8.97
2023-01-07T04:18:05.808Z,8.97
2023-01-07T04:19:05.791Z,8.98
2023-01-07T04:20:05.773Z,8.96
2023-01-07T04:21:05.758Z,9.08
2023-01-07T04:22:05.876Z,8.98
2023-01-07T04:23:05.734Z,9.00
2023-01-07T04:24:05.710Z,8.96
2023-01-07T04:25:05.710Z,8.98
2023-01-07T04:26:05.684Z,9.04
2023-01-07T04:27:05.671Z,8.97
2023-01-07T04:28:05.669Z,8.96
2023-01-07T04:29:05.644Z,9.00
2023-01-07T04:30:05.626Z,8.96
2023-01-07T04:31:05.650Z,8.98
2023-01-07T04:32:05.618Z,8.96
2023-01-07T04:33:05.597Z,8.97
2023-01-07T04:34:05.572Z,8.93
2023-01-07T04:35:05.561Z,8.94
2023-01-07T04:36:05.538Z,8.97
2023-01-07T04:37:05.527Z,9.12
2023-01-07T04:38:05.626Z,8.97
2023-01-07T04:39:05.506Z,8.94
2023-01-07T04:40:05.486Z,8.98
2023-01-07T04:41:05.471Z,8.97
2023-01-07T04:42:05.454Z,8.97
2023-01-07T04:43:05.442Z,9.00
2023-01-07T04:44:05.426Z,9.13
2023-01-07T04:45:05.411Z,8.98
2023-01-07T04:46:05.445Z,9.04
2023-01-07T04:47:05.384Z,8.94
2023-01-07T04:49:05.353Z,9.03
2023-01-07T04:50:05.348Z,8.98
2023-01-07T04:51:05.325Z,9.00
2023-01-07T04:52:05.314Z,8.98
2023-01-07T04:53:05.307Z,8.96
2023-01-07T04:54:05.400Z,8.94
2023-01-07T04:55:05.274Z,8.88
2023-01-07T04:56:05.264Z,8.89
2023-01-07T04:57:05.236Z,8.89
2023-01-07T04:58:05.225Z,8.86
2023-01-07T04:59:05.209Z,8.86
2023-01-07T05:00:05.203Z,8.78
2023-01-07T05:01:05.352Z,8.78
2023-01-07T05:02:05.401Z,8.80
2023-01-07T05:03:05.154Z,8.80
2023-01-07T05:04:05.205Z,8.80
2023-01-07T05:05:05.121Z,8.71
2023-01-07T05:06:05.121Z,8.73
2023-01-07T05:07:05.094Z,8.79
2023-01-07T05:08:05.087Z,8.68
2023-01-07T05:09:05.065Z,8.73
2023-01-07T05:10:05.164Z,8.75
2023-01-07T05:11:05.037Z,8.80
2023-01-07T05:12:05.089Z,8.83
2023-01-07T05:13:06.717Z,8.79
2023-01-07T05:14:04.996Z,8.79
2023-01-07T05:15:05.005Z,8.85
2023-01-07T05:16:04.977Z,8.83
2023-01-07T05:17:05.049Z,8.76
2023-01-07T05:18:04.939Z,8.79
2023-01-07T05:19:04.920Z,8.83
2023-01-07T05:20:04.913Z,8.83
2023-01-07T05:21:04.892Z,8.80
2023-01-07T05:22:04.882Z,8.79
2023-01-07T05:23:04.862Z,8.75
2023-01-07T05:24:04.853Z,8.78
2023-01-07T05:25:04.836Z,8.79
2023-01-07T05:26:04.940Z,8.86
2023-01-07T05:27:04.804Z,8.88
2023-01-07T05:28:04.798Z,8.85
2023-01-07T05:29:04.791Z,8.73
2023-01-07T05:30:04.766Z,8.89
2023-01-07T05:31:04.859Z,8.82
2023-01-07T05:32:04.736Z,8.75
2023-01-07T05:33:04.719Z,8.83
2023-01-07T05:34:04.732Z,8.83
2023-01-07T05:35:04.694Z,8.88
2023-01-07T05:36:04.678Z,8.85
2023-01-07T05:37:04.668Z,8.88
2023-01-07T05:38:04.662Z,8.89
2023-01-07T05:39:04.630Z,8.91
2023-01-07T05:40:04.625Z,8.94
2023-01-07T05:41:04.603Z,8.86
2023-01-07T05:42:04.707Z,8.89
2023-01-07T05:43:04.578Z,8.91
2023-01-07T05:44:04.575Z,8.93
2023-01-07T05:45:04.549Z,8.85
2023-01-07T05:46:04.609Z,8.94
2023-01-07T05:47:04.523Z,8.89
2023-01-07T05:48:04.506Z,8.82
2023-01-07T05:49:04.495Z,8.82
2023-01-07T05:50:04.501Z,8.88
2023-01-07T05:51:04.457Z,8.94
2023-01-07T05:52:04.457Z,8.98
2023-01-07T05:53:04.435Z,8.96
2023-01-07T05:54:04.420Z,8.88
2023-01-07T05:55:04.455Z,8.91
2023-01-07T05:56:04.393Z,8.89
2023-01-07T05:57:04.422Z,8.88
2023-01-07T05:58:04.493Z,9.00
2023-01-07T05:59:04.357Z,9.06
2023-01-07T06:00:04.330Z,9.10
2023-01-07T06:01:04.395Z,9.06
2023-01-07T06:02:04.310Z,9.12
2023-01-07T06:03:04.310Z,9.03
2023-01-07T06:04:04.278Z,8.96
2023-01-07T06:05:04.355Z,9.04
2023-01-07T06:06:04.246Z,9.12
2023-01-07T06:07:04.240Z,9.03
2023-01-07T06:08:04.216Z,9.22
2023-01-07T06:09:04.197Z,9.20
2023-01-07T06:11:04.177Z,9.10
2023-01-07T06:12:04.156Z,9.16
2023-01-07T06:13:04.143Z,9.16
2023-01-07T06:14:04.243Z,9.17
2023-01-07T06:15:04.122Z,9.12
2023-01-07T06:16:04.197Z,9.04
2023-01-07T06:17:04.087Z,9.04
2023-01-07T06:18:04.071Z,9.04
2023-01-07T06:19:04.066Z,9.10
2023-01-07T06:20:04.050Z,9.13
2023-01-07T06:21:04.039Z,9.06
2023-01-07T06:22:04.010Z,8.96
2023-01-07T06:23:04.001Z,8.98
2023-01-07T06:24:03.981Z,9.06
2023-01-07T06:25:03.972Z,9.06
2023-01-07T06:26:03.959Z,9.04
2023-01-07T06:27:03.942Z,9.03
2023-01-07T06:28:03.925Z,9.03
2023-01-07T06:29:03.912Z,9.20
2023-01-07T06:30:04.016Z,9.17
2023-01-07T06:31:03.964Z,9.12
2023-01-07T06:32:03.865Z,9.03
2023-01-07T06:33:03.857Z,9.03
2023-01-07T06:34:03.835Z,8.97
2023-01-07T06:35:03.835Z,8.91
2023-01-07T06:36:03.823Z,8.86
2023-01-07T06:37:03.805Z,8.82
2023-01-07T06:38:03.781Z,8.96
2023-01-07T06:39:03.783Z,8.94
2023-01-07T06:40:03.746Z,8.85
2023-01-07T06:41:03.745Z,8.71
2023-01-07T06:42:03.719Z,8.71
2023-01-07T06:43:03.708Z,8.83
2023-01-07T06:44:03.693Z,8.89
2023-01-07T06:45:03.688Z,8.83
2023-01-07T06:46:03.908Z,8.96
2023-01-07T06:47:03.650Z,8.76
2023-01-07T06:48:03.635Z,8.93
2023-01-07T06:49:03.625Z,8.89
2023-01-07T06:50:03.603Z,8.78
2023-01-07T06:51:03.606Z,8.75
2023-01-07T06:52:03.590Z,8.78
2023-01-07T06:53:03.565Z,8.78
2023-01-07T06:54:03.551Z,8.82
2023-01-07T06:55:03.531Z,8.80
2023-01-07T06:56:03.515Z,8.79
2023-01-07T06:57:03.556Z,8.71
2023-01-07T06:58:03.491Z,8.71
2023-01-07T06:59:03.475Z,8.73
2023-01-07T07:00:03.469Z,8.71
2023-01-07T07:01:03.526Z,8.70
2023-01-07T07:02:03.525Z,8.75
2023-01-07T07:03:03.490Z,8.70
2023-01-07T07:04:03.408Z,8.71
2023-01-07T07:05:03.389Z,8.71
2023-01-07T07:06:03.374Z,8.67
2023-01-07T07:07:03.367Z,8.71
2023-01-07T07:08:03.341Z,8.71
2023-01-07T07:09:03.337Z,8.75
2023-01-07T07:10:03.312Z,8.80
2023-01-07T07:11:03.301Z,8.89
2023-01-07T07:12:03.282Z,8.78
2023-01-07T07:13:03.289Z,8.73
2023-01-07T07:14:03.255Z,8.73
2023-01-07T07:15:03.242Z,8.71
2023-01-07T07:16:03.322Z,8.67
2023-01-07T07:17:03.415Z,8.82
2023-01-07T07:18:03.310Z,8.85
2023-01-07T07:19:03.243Z,8.85
2023-01-07T07:20:03.166Z,8.75
2023-01-07T07:21:03.171Z,8.89
2023-01-07T07:22:04.675Z,8.91
2023-01-07T07:23:03.131Z,8.86
2023-01-07T07:24:03.125Z,8.88
2023-01-07T07:25:03.100Z,8.75
2023-01-07T07:26:03.094Z,8.88
2023-01-07T07:27:03.072Z,8.75
2023-01-07T07:28:03.083Z,8.93
2023-01-07T07:29:03.050Z,8.85
2023-01-07T07:30:03.033Z,8.89
2023-01-07T07:31:03.158Z,8.76
2023-01-07T07:32:03.003Z,8.85
2023-01-07T07:33:03.007Z,8.89
2023-01-07T07:34:03.077Z,8.85
2023-01-07T07:35:02.955Z,8.89
2023-01-07T07:36:02.935Z,8.93
2023-01-07T07:37:02.935Z,8.82
2023-01-07T07:38:02.906Z,8.86
2023-01-07T07:39:02.907Z,8.86
2023-01-07T07:40:02.878Z,8.86
2023-01-07T07:41:02.865Z,8.85
2023-01-07T07:42:02.860Z,8.91
2023-01-07T07:43:10.493Z,8.86
2023-01-07T07:44:02.820Z,8.83
2023-01-07T07:45:02.817Z,8.91
2023-01-07T07:46:02.790Z,8.82
2023-01-07T07:47:02.783Z,8.85
2023-01-07T07:48:02.761Z,8.86
2023-01-07T07:49:02.747Z,8.85
2023-01-07T07:50:02.852Z,8.80
2023-01-07T07:51:02.726Z,8.83
2023-01-07T07:52:02.705Z,8.88
2023-01-07T07:53:02.712Z,8.80
2023-01-07T07:54:02.673Z,8.79
2023-01-07T07:55:20.207Z,8.89
2023-01-07T07:56:02.653Z,8.88
2023-01-07T07:57:02.632Z,8.83
2023-01-07T07:58:02.613Z,8.83
2023-01-07T07:59:02.605Z,8.86
2023-01-07T08:00:02.602Z,8.88
2023-01-07T08:01:02.644Z,8.93
2023-01-07T08:02:02.641Z,8.94
2023-01-07T08:03:02.589Z,8.96
2023-01-07T08:04:02.528Z,8.98
2023-01-07T08:05:02.518Z,8.96
2023-01-07T08:06:02.611Z,9.03
2023-01-07T08:07:02.519Z,8.98
2023-01-07T08:08:02.468Z,9.13
2023-01-07T08:09:02.471Z,9.01
2023-01-07T08:10:02.448Z,9.12
2023-01-07T08:11:02.435Z,9.06
2023-01-07T08:12:02.412Z,9.08
2023-01-07T08:13:02.400Z,9.03
2023-01-07T08:14:02.585Z,9.13
2023-01-07T08:15:02.374Z,9.10
2023-01-07T08:16:02.413Z,9.17
2023-01-07T08:17:02.352Z,9.13
2023-01-07T08:18:02.332Z,9.22
2023-01-07T08:19:02.332Z,9.23
2023-01-07T08:20:02.297Z,9.27
2023-01-07T08:21:02.291Z,9.30
2023-01-07T08:22:02.392Z,9.26
2023-01-07T08:23:02.263Z,9.26
2023-01-07T08:24:02.238Z,9.30
2023-01-07T08:25:02.294Z,9.31
2023-01-07T08:26:02.215Z,9.30
2023-01-07T08:27:02.200Z,9.27
2023-01-07T08:28:02.207Z,9.32
2023-01-07T08:29:02.177Z,9.40
2023-01-07T08:30:02.157Z,9.38
2023-01-07T08:31:02.202Z,9.40
2023-01-07T08:32:02.128Z,9.49
2023-01-07T08:33:02.112Z,9.45
2023-01-07T08:34:02.100Z,9.50
2023-01-07T08:35:02.087Z,9.53
2023-01-07T08:36:03.613Z,9.52
2023-01-07T08:37:02.060Z,9.52
2023-01-07T08:38:02.169Z,9.50
2023-01-07T08:39:02.030Z,9.49
2023-01-07T08:40:03.986Z,9.50
2023-01-07T08:41:01.998Z,9.49
2023-01-07T08:42:01.985Z,9.53
2023-01-07T08:43:01.969Z,9.53
2023-01-07T08:44:01.959Z,9.56
2023-01-07T08:45:01.938Z,9.60
2023-01-07T08:46:01.925Z,9.56
2023-01-07T08:47:01.977Z,9.59
2023-01-07T08:48:01.904Z,9.62
2023-01-07T08:49:01.881Z,9.60
2023-01-07T08:50:01.873Z,9.68
2023-01-07T08:51:01.859Z,9.73
2023-01-07T08:52:01.859Z,9.67
2023-01-07T08:53:01.823Z,9.60
2023-01-07T08:54:01.925Z,9.73
2023-01-07T08:55:01.795Z,9.74
2023-01-07T08:56:01.788Z,9.71
2023-01-07T08:57:01.777Z,9.59
2023-01-07T08:58:01.758Z,9.70
2023-01-07T08:59:01.743Z,9.68
2023-01-07T09:00:01.729Z,9.78
2023-01-07T09:01:01.844Z,9.81
2023-01-07T09:02:01.852Z,9.85
2023-01-07T09:03:01.681Z,9.74
2023-01-07T09:04:01.671Z,9.81
2023-01-07T09:05:01.657Z,9.78
2023-01-07T09:06:01.653Z,9.88
2023-01-07T09:07:01.631Z,9.91
2023-01-07T09:08:01.619Z,9.83
2023-01-07T09:09:01.605Z,9.88
2023-01-07T09:10:01.739Z,9.85
2023-01-07T09:11:01.575Z,9.81
2023-01-07T09:12:01.566Z,9.93
2023-01-07T09:13:01.548Z,9.81
2023-01-07T09:14:01.536Z,9.91
2023-01-07T09:15:01.515Z,9.91
2023-01-07T09:16:01.557Z,9.96
2023-01-07T09:17:01.489Z,9.93
2023-01-07T09:18:01.477Z,9.95
2023-01-07T09:19:01.461Z,10.01
2023-01-07T09:20:01.492Z,10.11
2023-01-07T09:21:01.434Z,10.20
2023-01-07T09:22:01.422Z,10.29
2023-01-07T09:23:01.405Z,10.25
2023-01-07T09:24:01.401Z,10.26
2023-01-07T09:25:01.379Z,10.24
2023-01-07T09:26:01.494Z,10.31
2023-01-07T09:27:01.349Z,10.22
2023-01-07T09:28:01.341Z,10.20
2023-01-07T09:29:01.378Z,10.13
2023-01-07T09:30:01.334Z,10.28
2023-01-07T09:31:01.299Z,10.38
2023-01-07T09:32:01.291Z,10.36
2023-01-07T09:33:01.268Z,10.43
2023-01-07T09:34:01.261Z,10.39
2023-01-07T09:35:01.261Z,10.58
2023-01-07T09:36:01.243Z,10.49
2023-01-07T09:37:01.214Z,10.51
2023-01-07T09:38:01.213Z,10.55
2023-01-07T09:39:01.190Z,10.54
2023-01-07T09:40:01.261Z,10.47
2023-01-07T09:41:01.156Z,10.49
2023-01-07T09:42:01.271Z,10.57
2023-01-07T09:43:01.136Z,10.51
2023-01-07T09:44:01.917Z,10.63
2023-01-07T09:45:01.112Z,10.60
2023-01-07T09:46:01.192Z,10.58
2023-01-07T09:47:01.077Z,10.62
2023-01-07T09:48:01.073Z,10.87
2023-01-07T09:49:01.049Z,10.99
2023-01-07T09:50:01.041Z,11.02
2023-01-07T09:51:01.026Z,10.98
2023-01-07T09:52:01.017Z,10.95
2023-01-07T09:53:01.002Z,10.99
2023-01-07T09:54:00.988Z,11.02
2023-01-07T09:55:00.973Z,10.99
2023-01-07T09:56:10.649Z,10.98
2023-01-07T09:57:00.948Z,11.06
2023-01-07T09:58:01.066Z,11.05
2023-01-07T09:59:00.931Z,11.26
2023-01-07T10:00:00.914Z,11.20
2023-01-07T10:01:00.973Z,11.19
2023-01-07T10:02:00.890Z,11.21
2023-01-07T10:03:00.970Z,11.23
2023-01-07T10:04:00.943Z,11.33
2023-01-07T10:05:00.836Z,11.33
2023-01-07T10:06:00.845Z,11.42
2023-01-07T10:07:00.815Z,11.42
2023-01-07T10:08:29.788Z,11.49
2023-01-07T10:09:00.781Z,11.46
2023-01-07T10:10:00.774Z,11.60
2023-01-07T10:11:00.757Z,11.59
2023-01-07T10:12:00.744Z,11.60
2023-01-07T10:13:00.728Z,11.72
2023-01-07T10:14:00.838Z,11.72
2023-01-07T10:15:00.705Z,11.66
2023-01-07T10:16:00.710Z,11.67
2023-01-07T10:17:00.677Z,11.78
2023-01-07T10:18:00.666Z,11.79
2023-01-07T10:19:00.658Z,11.87
2023-01-07T10:20:00.640Z,11.85
2023-01-07T10:21:00.623Z,11.93
2023-01-07T10:22:00.624Z,11.96
2023-01-07T10:23:00.606Z,11.93
2023-01-07T10:24:00.599Z,11.88
2023-01-07T10:25:00.571Z,12.01
2023-01-07T10:26:00.560Z,11.90
2023-01-07T10:27:00.544Z,11.85
2023-01-07T10:28:00.540Z,11.82
2023-01-07T10:29:00.527Z,11.84
2023-01-07T10:30:00.719Z,11.74
2023-01-07T10:31:00.500Z,11.79
2023-01-07T10:32:00.588Z,11.62
2023-01-07T10:33:00.466Z,11.67
2023-01-07T10:34:00.474Z,11.74
2023-01-07T10:35:00.448Z,11.72
2023-01-07T10:36:00.430Z,11.74
2023-01-07T10:37:00.438Z,11.90
2023-01-07T10:38:00.404Z,11.90
2023-01-07T10:39:00.386Z,11.87
2023-01-07T10:40:00.394Z,11.81
2023-01-07T10:41:00.367Z,11.88
2023-01-07T10:42:00.355Z,11.90
2023-01-07T10:43:00.335Z,11.93
2023-01-07T10:44:00.326Z,11.90
2023-01-07T10:45:00.314Z,12.04
2023-01-07T10:46:00.579Z,12.01
2023-01-07T10:47:00.286Z,12.03
2023-01-07T10:48:00.279Z,12.05
2023-01-07T10:49:00.257Z,12.04
2023-01-07T10:50:00.267Z,12.00
2023-01-07T10:51:00.230Z,12.07
2023-01-07T10:52:00.222Z,12.13
2023-01-07T10:53:00.206Z,12.25
2023-01-07T10:54:00.200Z,12.25
2023-01-07T10:55:00.180Z,12.29
2023-01-07T10:56:00.181Z,12.23
2023-01-07T10:57:00.165Z,12.36
2023-01-07T10:58:00.143Z,12.29
2023-01-07T10:59:00.129Z,12.37
2023-01-07T11:00:00.160Z,12.43
2023-01-07T11:01:00.213Z,12.48
2023-01-07T11:02:00.501Z,12.54
2023-01-07T11:03:00.228Z,12.49
2023-01-07T11:04:00.075Z,12.44
2023-01-07T11:05:00.062Z,12.52
2023-01-07T11:06:00.059Z,12.49
2023-01-07T11:07:00.035Z,12.36
2023-01-07T11:08:00.018Z,12.31
2023-01-07T11:09:00.001Z,12.30
2023-01-07T11:10:00.007Z,12.37
2023-01-07T11:11:00.000Z,12.40
2023-01-07T11:11:59.965Z,12.40
2023-01-07T11:12:59.950Z,12.41
2023-01-07T11:13:59.972Z,12.36
2023-01-07T11:14:59.926Z,12.54
2023-01-07T11:15:59.918Z,12.49
2023-01-07T11:16:59.900Z,12.54
2023-01-07T11:18:00.003Z,12.58
2023-01-07T11:18:59.901Z,12.58
2023-01-07T11:19:59.869Z,12.62
2023-01-07T11:20:59.907Z,12.67
2023-01-07T11:21:59.842Z,12.66
2023-01-07T11:22:59.849Z,12.66
2023-01-07T11:23:59.817Z,12.67
2023-01-07T11:24:59.799Z,12.54
2023-01-07T11:25:59.843Z,12.55
2023-01-07T11:26:59.778Z,12.59
2023-01-07T11:27:59.766Z,12.55
2023-01-07T11:28:59.775Z,12.52
2023-01-07T11:29:59.746Z,12.61
2023-01-07T11:30:59.729Z,12.58
2023-01-07T11:31:59.788Z,12.67
2023-01-07T11:32:59.752Z,12.66
2023-01-07T11:34:03.884Z,12.61
2023-01-07T11:34:59.679Z,12.58
2023-01-07T11:35:59.673Z,12.58
2023-01-07T11:36:59.652Z,12.58
2023-01-07T11:37:59.643Z,12.61
2023-01-07T11:38:59.628Z,12.59
2023-01-07T11:39:59.619Z,12.63
2023-01-07T11:41:00.670Z,12.59
2023-01-07T11:41:59.627Z,12.61
2023-01-07T11:42:59.594Z,12.67
2023-01-07T11:43:59.576Z,12.74
2023-01-07T11:44:59.559Z,12.63
2023-01-07T11:46:19.515Z,12.63
2023-01-07T11:46:59.563Z,12.71
2023-01-07T11:47:59.518Z,12.77
2023-01-07T11:48:59.502Z,12.77
2023-01-07T11:49:59.608Z,12.77
2023-01-07T11:50:59.504Z,12.76
2023-01-07T11:51:59.470Z,12.77
2023-01-07T11:52:59.460Z,12.92
2023-01-07T11:53:59.450Z,12.88
2023-01-07T11:54:59.430Z,12.87
2023-01-07T11:55:59.429Z,12.89
2023-01-07T11:56:59.403Z,12.92
2023-01-07T11:58:28.478Z,12.98
2023-01-07T11:58:59.380Z,12.98
2023-01-07T11:59:59.375Z,13.03
2023-01-07T12:00:59.432Z,12.94
2023-01-07T12:01:59.506Z,12.96
2023-01-07T12:02:59.336Z,13.01
2023-01-07T12:03:59.321Z,12.92
2023-01-07T12:04:59.309Z,12.94
2023-01-07T12:05:59.432Z,13.06
2023-01-07T12:06:59.285Z,13.04
2023-01-07T12:07:59.273Z,13.12
2023-01-07T12:08:59.257Z,13.07
2023-01-07T12:09:59.455Z,13.12
2023-01-07T12:10:59.235Z,13.12
2023-01-07T12:11:59.224Z,13.17
2023-01-07T12:12:59.207Z,13.29
2023-01-07T12:13:59.199Z,13.35
2023-01-07T12:14:59.185Z,13.36
2023-01-07T12:15:59.177Z,13.38
2023-01-07T12:16:59.162Z,13.25
2023-01-07T12:17:59.149Z,13.24
2023-01-07T12:18:59.137Z,13.21
2023-01-07T12:19:59.129Z,13.06
2023-01-07T12:20:59.112Z,13.07
2023-01-07T12:21:59.227Z,13.01
2023-01-07T12:22:59.293Z,12.96
2023-01-07T12:23:59.155Z,12.91
2023-01-07T12:24:59.065Z,12.94
2023-01-07T12:25:59.055Z,12.85
2023-01-07T12:26:59.042Z,12.84
2023-01-07T12:27:59.031Z,12.80
2023-01-07T12:28:59.035Z,12.84
2023-01-07T12:29:59.005Z,12.89
2023-01-07T12:30:59.042Z,12.87
2023-01-07T12:31:58.993Z,12.87
2023-01-07T12:32:58.969Z,12.85
2023-01-07T12:33:58.962Z,12.98
2023-01-07T12:34:58.949Z,12.76
2023-01-07T12:35:58.974Z,12.85
2023-01-07T12:36:58.969Z,12.76
2023-01-07T12:37:59.034Z,12.92
2023-01-07T12:38:58.901Z,12.84
2023-01-07T12:39:58.895Z,12.85
2023-01-07T12:40:58.877Z,12.87
2023-01-07T12:41:58.861Z,12.92
2023-01-07T12:42:58.845Z,12.85
2023-01-07T12:43:58.837Z,12.88
2023-01-07T12:44:58.844Z,12.79
2023-01-07T12:45:58.910Z,12.89
2023-01-07T12:47:31.120Z,12.87
2023-01-07T12:47:58.785Z,12.94
2023-01-07T12:48:58.775Z,12.88
2023-01-07T12:49:58.762Z,12.84
2023-01-07T12:50:58.758Z,12.84
2023-01-07T12:51:58.735Z,12.94
2023-01-07T12:52:58.744Z,12.88
2023-01-07T12:53:58.835Z,12.77
2023-01-07T12:54:58.706Z,12.74
2023-01-07T12:55:58.714Z,12.74
2023-01-07T12:56:58.677Z,12.71
2023-01-07T12:57:58.661Z,12.74
2023-01-07T12:58:58.651Z,12.74
2023-01-07T12:59:58.640Z,12.91
2023-01-07T13:00:58.664Z,12.77
2023-01-07T13:01:58.778Z,12.76
2023-01-07T13:02:58.623Z,12.80
2023-01-07T13:03:58.589Z,12.79
2023-01-07T13:04:58.618Z,12.70
2023-01-07T13:05:58.577Z,12.69
2023-01-07T13:06:58.558Z,12.70
2023-01-07T13:07:58.539Z,12.71
2023-01-07T13:08:58.538Z,12.70
2023-01-07T13:09:58.636Z,12.63
2023-01-07T13:10:58.508Z,12.66
2023-01-07T13:11:58.491Z,12.70